sensor_id;sensor_type;location;lat;lon;timestamp;temperature;humidity
34985;DHT22;21190;58.750;17.004;2022-12-13T00:01:29;-2.90;99.90
34985;DHT22;21190;58.750;17.004;2022-12-13T00:03:57;-2.90;99.90
34985;DHT22;21190;58.750;17.004;2022-12-13T00:06:25;-2.90;99.90
34985;DHT22;21190;58.750;17.004;2022-12-13T00:08:52;-2.90;99.90
34985;DHT22;21190;58.750;17.004;2022-12-13T00:11:19;-2.90;99.90
34985;DHT22;21190;58.750;17.004;2022-12-13T00:13:46;-2.90;99.90
34985;DHT22;21190;58.750;17.004;2022-12-13T00:16:15;-2.90;99.90
34985;DHT22;21190;58.750;17.004;2022-12-13T00:18:46;-2.90;99.90
34985;DHT22;21190;58.750;17.004;2022-12-13T00:21:14;-2.90;99.90
34985;DHT22;21190;58.750;17.004;2022-12-13T00:23:41;-2.90;99.90
34985;DHT22;21190;58.750;17.004;2022-12-13T00:26:12;-2.90;99.90
34985;DHT22;21190;58.750;17.004;2022-12-13T00:28:40;-3.00;99.90
34985;DHT22;21190;58.750;17.004;2022-12-13T00:31:07;-2.90;99.90
34985;DHT22;21190;58.750;17.004;2022-12-13T00:33:54;-2.90;99.90
34985;DHT22;21190;58.750;17.004;2022-12-13T00:36:21;-2.90;99.90
34985;DHT22;21190;58.750;17.004;2022-12-13T00:38:48;-3.00;99.90
34985;DHT22;21190;58.750;17.004;2022-12-13T00:41:30;-2.90;99.90
34985;DHT22;21190;58.750;17.004;2022-12-13T00:43:57;-3.00;99.90
34985;DHT22;21190;58.750;17.004;2022-12-13T00:46:25;-3.00;99.90
34985;DHT22;21190;58.750;17.004;2022-12-13T00:48:53;-3.00;99.90
34985;DHT22;21190;58.750;17.004;2022-12-13T00:51:21;-2.90;99.90
34985;DHT22;21190;58.750;17.004;2022-12-13T00:53:48;-3.00;99.90
34985;DHT22;21190;58.750;17.004;2022-12-13T00:56:17;-3.00;99.90
34985;DHT22;21190;58.750;17.004;2022-12-13T00:58:45;-3.10;99.90
34985;DHT22;21190;58.750;17.004;2022-12-13T01:01:18;-3.10;99.90
34985;DHT22;21190;58.750;17.004;2022-12-13T01:03:45;-3.30;99.90
34985;DHT22;21190;58.750;17.004;2022-12-13T01:06:13;-3.30;99.90
34985;DHT22;21190;58.750;17.004;2022-12-13T01:08:42;-3.40;99.90
34985;DHT22;21190;58.750;17.004;2022-12-13T01:11:09;-3.40;99.90
34985;DHT22;21190;58.750;17.004;2022-12-13T01:13:36;-3.50;99.90
34985;DHT22;21190;58.750;17.004;2022-12-13T01:16:04;-3.60;99.90
34985;DHT22;21190;58.750;17.004;2022-12-13T01:18:31;-3.60;99.90
34985;DHT22;21190;58.750;17.004;2022-12-13T01:21:03;-3.70;99.90
34985;DHT22;21190;58.750;17.004;2022-12-13T01:23:30;-3.80;99.90
34985;DHT22;21190;58.750;17.004;2022-12-13T01:25:57;-3.80;99.90
34985;DHT22;21190;58.750;17.004;2022-12-13T01:28:24;-3.90;99.90
34985;DHT22;21190;58.750;17.004;2022-12-13T01:30:54;-3.90;99.90
34985;DHT22;21190;58.750;17.004;2022-12-13T01:33:22;-3.90;99.90
34985;DHT22;21190;58.750;17.004;2022-12-13T01:35:49;-4.00;99.90
34985;DHT22;21190;58.750;17.004;2022-12-13T01:38:16;-4.00;99.90
34985;DHT22;21190;58.750;17.004;2022-12-13T01:40:47;-4.10;99.90
34985;DHT22;21190;58.750;17.004;2022-12-13T01:43:14;-4.10;99.90
34985;DHT22;21190;58.750;17.004;2022-12-13T01:45:41;-4.10;99.90
34985;DHT22;21190;58.750;17.004;2022-12-13T01:48:10;-4.20;99.90
34985;DHT22;21190;58.750;17.004;2022-12-13T01:50:40;-4.10;99.90
34985;DHT22;21190;58.750;17.004;2022-12-13T01:53:08;-4.10;99.90
34985;DHT22;21190;58.750;17.004;2022-12-13T01:55:37;-4.20;99.90
34985;DHT22;21190;58.750;17.004;2022-12-13T01:58:07;-4.10;99.90
34985;DHT22;21190;58.750;17.004;2022-12-13T02:00:34;-4.20;99.90
34985;DHT22;21190;58.750;17.004;2022-12-13T02:03:06;-4.30;99.90
34985;DHT22;21190;58.750;17.004;2022-12-13T02:05:50;-4.30;99.90
34985;DHT22;21190;58.750;17.004;2022-12-13T02:08:18;-4.30;99.90
34985;DHT22;21190;58.750;17.004;2022-12-13T02:10:45;-4.30;99.90
34985;DHT22;21190;58.750;17.004;2022-12-13T02:13:13;-4.30;99.90
34985;DHT22;21190;58.750;17.004;2022-12-13T02:15:57;-4.40;99.90
34985;DHT22;21190;58.750;17.004;2022-12-13T02:33:54;-4.50;99.90
34985;DHT22;21190;58.750;17.004;2022-12-13T02:38:55;-4.40;99.90
34985;DHT22;21190;58.750;17.004;2022-12-13T02:41:28;-4.50;99.90
34985;DHT22;21190;58.750;17.004;2022-12-13T02:46:47;-4.60;99.90
34985;DHT22;21190;58.750;17.004;2022-12-13T02:49:18;-4.60;99.90
34985;DHT22;21190;58.750;17.004;2022-12-13T02:51:46;-4.70;99.90
34985;DHT22;21190;58.750;17.004;2022-12-13T02:54:13;-4.60;99.90
34985;DHT22;21190;58.750;17.004;2022-12-13T02:56:40;-4.60;99.90
34985;DHT22;21190;58.750;17.004;2022-12-13T02:59:11;-4.60;99.90
34985;DHT22;21190;58.750;17.004;2022-12-13T03:01:44;-4.70;99.90
34985;DHT22;21190;58.750;17.004;2022-12-13T03:06:59;-4.70;99.90
34985;DHT22;21190;58.750;17.004;2022-12-13T03:12:17;-4.70;99.90
34985;DHT22;21190;58.750;17.004;2022-12-13T03:17:36;-4.70;99.90
34985;DHT22;21190;58.750;17.004;2022-12-13T03:20:03;-4.70;99.90
34985;DHT22;21190;58.750;17.004;2022-12-13T03:22:48;-4.70;99.90
34985;DHT22;21190;58.750;17.004;2022-12-13T03:25:14;-4.80;99.90
34985;DHT22;21190;58.750;17.004;2022-12-13T03:27:57;-4.70;99.90
34985;DHT22;21190;58.750;17.004;2022-12-13T03:30:27;-4.80;99.90
34985;DHT22;21190;58.750;17.004;2022-12-13T03:32:54;-4.90;99.90
34985;DHT22;21190;58.750;17.004;2022-12-13T03:35:20;-4.90;99.90
34985;DHT22;21190;58.750;17.004;2022-12-13T03:37:48;-4.90;99.90
34985;DHT22;21190;58.750;17.004;2022-12-13T03:40:16;-5.00;99.90
34985;DHT22;21190;58.750;17.004;2022-12-13T03:42:43;-5.00;99.90
34985;DHT22;21190;58.750;17.004;2022-12-13T03:45:10;-5.10;99.90
34985;DHT22;21190;58.750;17.004;2022-12-13T03:47:37;-5.10;99.90
34985;DHT22;21190;58.750;17.004;2022-12-13T03:50:04;-5.20;99.90
34985;DHT22;21190;58.750;17.004;2022-12-13T03:52:56;-5.20;99.90
34985;DHT22;21190;58.750;17.004;2022-12-13T03:55:23;-5.20;99.90
34985;DHT22;21190;58.750;17.004;2022-12-13T03:57:50;-5.20;99.90
34985;DHT22;21190;58.750;17.004;2022-12-13T04:00:17;-5.20;99.90
34985;DHT22;21190;58.750;17.004;2022-12-13T04:02:44;-5.20;99.90
34985;DHT22;21190;58.750;17.004;2022-12-13T04:05:11;-5.20;99.90
34985;DHT22;21190;58.750;17.004;2022-12-13T04:07:38;-5.20;99.90
34985;DHT22;21190;58.750;17.004;2022-12-13T04:10:13;-5.30;99.90
34985;DHT22;21190;58.750;17.004;2022-12-13T04:12:52;-5.20;99.90
34985;DHT22;21190;58.750;17.004;2022-12-13T04:15:38;-5.20;99.90
34985;DHT22;21190;58.750;17.004;2022-12-13T04:18:05;-5.30;99.90
34985;DHT22;21190;58.750;17.004;2022-12-13T04:20:32;-5.30;99.90
34985;DHT22;21190;58.750;17.004;2022-12-13T04:22:58;-5.30;99.90
34985;DHT22;21190;58.750;17.004;2022-12-13T04:25:35;-5.40;99.90
34985;DHT22;21190;58.750;17.004;2022-12-13T04:28:02;-5.40;99.90
34985;DHT22;21190;58.750;17.004;2022-12-13T04:30:28;-5.50;99.90
34985;DHT22;21190;58.750;17.004;2022-12-13T04:32:55;-5.50;99.90
34985;DHT22;21190;58.750;17.004;2022-12-13T04:35:22;-5.50;99.90
34985;DHT22;21190;58.750;17.004;2022-12-13T04:37:49;-5.50;99.90
34985;DHT22;21190;58.750;17.004;2022-12-13T04:40:16;-5.50;99.90
34985;DHT22;21190;58.750;17.004;2022-12-13T04:42:47;-5.60;99.90
34985;DHT22;21190;58.750;17.004;2022-12-13T04:45:20;-5.60;99.90
34985;DHT22;21190;58.750;17.004;2022-12-13T04:47:47;-5.70;99.90
34985;DHT22;21190;58.750;17.004;2022-12-13T04:50:14;-5.70;99.90
34985;DHT22;21190;58.750;17.004;2022-12-13T04:52:41;-5.80;99.90
34985;DHT22;21190;58.750;17.004;2022-12-13T04:55:08;-5.80;99.90
34985;DHT22;21190;58.750;17.004;2022-12-13T04:57:35;-5.80;99.90
34985;DHT22;21190;58.750;17.004;2022-12-13T05:00:03;-5.80;99.90
34985;DHT22;21190;58.750;17.004;2022-12-13T05:02:30;-5.80;99.90
34985;DHT22;21190;58.750;17.004;2022-12-13T05:04:57;-5.80;99.90
34985;DHT22;21190;58.750;17.004;2022-12-13T05:07:24;-5.80;99.90
34985;DHT22;21190;58.750;17.004;2022-12-13T05:09:51;-5.90;99.90
34985;DHT22;21190;58.750;17.004;2022-12-13T05:12:18;-5.90;99.90
34985;DHT22;21190;58.750;17.004;2022-12-13T05:14:49;-5.90;99.90
34985;DHT22;21190;58.750;17.004;2022-12-13T05:17:16;-6.00;99.90
34985;DHT22;21190;58.750;17.004;2022-12-13T05:19:43;-6.00;99.90
34985;DHT22;21190;58.750;17.004;2022-12-13T05:22:10;-6.00;99.90
34985;DHT22;21190;58.750;17.004;2022-12-13T05:24:46;-6.00;99.90
34985;DHT22;21190;58.750;17.004;2022-12-13T05:27:14;-6.00;99.90
34985;DHT22;21190;58.750;17.004;2022-12-13T05:29:51;-6.10;99.90
34985;DHT22;21190;58.750;17.004;2022-12-13T05:32:32;-6.10;99.90
34985;DHT22;21190;58.750;17.004;2022-12-13T05:35:13;-6.10;99.90
34985;DHT22;21190;58.750;17.004;2022-12-13T05:37:52;-6.10;99.90
34985;DHT22;21190;58.750;17.004;2022-12-13T05:40:21;-6.10;99.90
34985;DHT22;21190;58.750;17.004;2022-12-13T05:42:48;-6.10;99.90
34985;DHT22;21190;58.750;17.004;2022-12-13T05:45:16;-6.10;99.90
34985;DHT22;21190;58.750;17.004;2022-12-13T05:47:43;-6.10;99.90
34985;DHT22;21190;58.750;17.004;2022-12-13T05:50:11;-6.10;99.90
34985;DHT22;21190;58.750;17.004;2022-12-13T05:52:38;-6.10;99.90
34985;DHT22;21190;58.750;17.004;2022-12-13T05:55:05;-6.10;99.90
34985;DHT22;21190;58.750;17.004;2022-12-13T05:57:32;-6.20;99.90
34985;DHT22;21190;58.750;17.004;2022-12-13T05:59:59;-6.10;99.90
34985;DHT22;21190;58.750;17.004;2022-12-13T06:02:26;-6.20;99.90
34985;DHT22;21190;58.750;17.004;2022-12-13T06:04:53;-6.20;99.90
34985;DHT22;21190;58.750;17.004;2022-12-13T06:07:20;-6.20;99.90
34985;DHT22;21190;58.750;17.004;2022-12-13T06:09:47;-6.10;99.90
34985;DHT22;21190;58.750;17.004;2022-12-13T06:12:14;-6.10;99.90
34985;DHT22;21190;58.750;17.004;2022-12-13T06:14:58;-6.20;99.90
34985;DHT22;21190;58.750;17.004;2022-12-13T06:17:33;-6.20;99.90
34985;DHT22;21190;58.750;17.004;2022-12-13T06:20:01;-6.10;99.90
34985;DHT22;21190;58.750;17.004;2022-12-13T06:22:48;-6.10;99.90
34985;DHT22;21190;58.750;17.004;2022-12-13T06:25:15;-6.20;99.90
34985;DHT22;21190;58.750;17.004;2022-12-13T06:27:57;-6.10;99.90
34985;DHT22;21190;58.750;17.004;2022-12-13T06:30:29;-6.20;99.90
34985;DHT22;21190;58.750;17.004;2022-12-13T06:32:56;-6.20;99.90
34985;DHT22;21190;58.750;17.004;2022-12-13T06:35:23;-6.20;99.90
34985;DHT22;21190;58.750;17.004;2022-12-13T06:37:58;-6.20;99.90
34985;DHT22;21190;58.750;17.004;2022-12-13T06:40:28;-6.20;99.90
34985;DHT22;21190;58.750;17.004;2022-12-13T06:42:56;-6.10;99.90
34985;DHT22;21190;58.750;17.004;2022-12-13T06:45:23;-6.20;99.90
34985;DHT22;21190;58.750;17.004;2022-12-13T06:47:50;-6.20;99.90
34985;DHT22;21190;58.750;17.004;2022-12-13T06:50:17;-6.20;99.90
34985;DHT22;21190;58.750;17.004;2022-12-13T06:52:47;-6.20;99.90
34985;DHT22;21190;58.750;17.004;2022-12-13T06:55:14;-6.20;99.90
34985;DHT22;21190;58.750;17.004;2022-12-13T06:57:49;-6.20;99.90
34985;DHT22;21190;58.750;17.004;2022-12-13T07:00:16;-6.20;99.90
34985;DHT22;21190;58.750;17.004;2022-12-13T07:02:54;-6.30;99.90
34985;DHT22;21190;58.750;17.004;2022-12-13T07:05:21;-6.30;99.90
34985;DHT22;21190;58.750;17.004;2022-12-13T07:07:48;-6.20;99.90
34985;DHT22;21190;58.750;17.004;2022-12-13T07:10:15;-6.40;99.90
34985;DHT22;21190;58.750;17.004;2022-12-13T07:12:48;-6.40;99.90
34985;DHT22;21190;58.750;17.004;2022-12-13T07:15:15;-6.50;99.90
34985;DHT22;21190;58.750;17.004;2022-12-13T07:17:42;-6.40;99.90
34985;DHT22;21190;58.750;17.004;2022-12-13T07:20:09;-6.50;99.90
34985;DHT22;21190;58.750;17.004;2022-12-13T07:22:37;-6.50;99.90
34985;DHT22;21190;58.750;17.004;2022-12-13T07:25:13;-6.50;99.90
34985;DHT22;21190;58.750;17.004;2022-12-13T07:27:58;-6.60;99.90
34985;DHT22;21190;58.750;17.004;2022-12-13T07:30:35;-6.60;99.90
34985;DHT22;21190;58.750;17.004;2022-12-13T07:33:07;-6.60;99.90
34985;DHT22;21190;58.750;17.004;2022-12-13T07:35:34;-6.70;99.90
34985;DHT22;21190;58.750;17.004;2022-12-13T07:38:03;-6.70;99.90
34985;DHT22;21190;58.750;17.004;2022-12-13T07:40:31;-6.80;99.90
34985;DHT22;21190;58.750;17.004;2022-12-13T07:42:59;-6.80;99.90
34985;DHT22;21190;58.750;17.004;2022-12-13T07:45:26;-6.80;99.90
34985;DHT22;21190;58.750;17.004;2022-12-13T07:47:53;-6.90;99.90
34985;DHT22;21190;58.750;17.004;2022-12-13T07:50:20;-6.90;99.90
34985;DHT22;21190;58.750;17.004;2022-12-13T07:52:51;-6.90;99.90
34985;DHT22;21190;58.750;17.004;2022-12-13T07:55:18;-6.90;99.90
34985;DHT22;21190;58.750;17.004;2022-12-13T07:57:48;-7.00;99.90
34985;DHT22;21190;58.750;17.004;2022-12-13T08:00:15;-7.00;99.90
34985;DHT22;21190;58.750;17.004;2022-12-13T08:02:42;-7.10;99.90
34985;DHT22;21190;58.750;17.004;2022-12-13T08:05:09;-7.10;99.90
34985;DHT22;21190;58.750;17.004;2022-12-13T08:07:52;-7.10;99.90
34985;DHT22;21190;58.750;17.004;2022-12-13T08:10:19;-7.10;99.90
34985;DHT22;21190;58.750;17.004;2022-12-13T08:12:46;-7.10;99.90
34985;DHT22;21190;58.750;17.004;2022-12-13T08:15:13;-7.10;99.90
34985;DHT22;21190;58.750;17.004;2022-12-13T08:17:40;-7.10;99.90
34985;DHT22;21190;58.750;17.004;2022-12-13T08:20:07;-7.20;99.90
34985;DHT22;21190;58.750;17.004;2022-12-13T08:22:34;-7.20;99.90
34985;DHT22;21190;58.750;17.004;2022-12-13T08:25:02;-7.20;99.90
34985;DHT22;21190;58.750;17.004;2022-12-13T08:27:29;-7.30;99.90
34985;DHT22;21190;58.750;17.004;2022-12-13T08:29:56;-7.20;99.90
34985;DHT22;21190;58.750;17.004;2022-12-13T08:32:23;-7.20;99.90
34985;DHT22;21190;58.750;17.004;2022-12-13T08:34:50;-7.20;99.90
34985;DHT22;21190;58.750;17.004;2022-12-13T08:37:17;-7.20;99.90
34985;DHT22;21190;58.750;17.004;2022-12-13T08:39:44;-7.30;99.90
34985;DHT22;21190;58.750;17.004;2022-12-13T08:42:12;-7.30;99.90
34985;DHT22;21190;58.750;17.004;2022-12-13T08:44:48;-7.30;99.90
34985;DHT22;21190;58.750;17.004;2022-12-13T08:47:17;-7.30;99.90
34985;DHT22;21190;58.750;17.004;2022-12-13T08:49:51;-7.40;99.90
34985;DHT22;21190;58.750;17.004;2022-12-13T08:52:19;-7.30;99.90
34985;DHT22;21190;58.750;17.004;2022-12-13T08:54:46;-7.40;99.90
34985;DHT22;21190;58.750;17.004;2022-12-13T08:57:13;-7.40;99.90
34985;DHT22;21190;58.750;17.004;2022-12-13T08:59:39;-7.40;99.90
34985;DHT22;21190;58.750;17.004;2022-12-13T09:02:08;-7.40;99.90
34985;DHT22;21190;58.750;17.004;2022-12-13T09:04:37;-7.40;99.90
34985;DHT22;21190;58.750;17.004;2022-12-13T09:07:04;-7.50;99.90
34985;DHT22;21190;58.750;17.004;2022-12-13T09:09:31;-7.40;99.90
34985;DHT22;21190;58.750;17.004;2022-12-13T09:11:58;-7.40;99.90
34985;DHT22;21190;58.750;17.004;2022-12-13T09:14:26;-7.40;99.90
34985;DHT22;21190;58.750;17.004;2022-12-13T09:17:00;-7.50;99.90
34985;DHT22;21190;58.750;17.004;2022-12-13T09:19:29;-7.60;99.90
34985;DHT22;21190;58.750;17.004;2022-12-13T09:22:03;-7.50;99.90
34985;DHT22;21190;58.750;17.004;2022-12-13T09:24:30;-7.60;99.90
34985;DHT22;21190;58.750;17.004;2022-12-13T09:27:03;-7.60;99.90
34985;DHT22;21190;58.750;17.004;2022-12-13T09:29:36;-7.60;99.90
34985;DHT22;21190;58.750;17.004;2022-12-13T09:32:03;-7.60;99.90
34985;DHT22;21190;58.750;17.004;2022-12-13T09:34:30;-7.60;99.90
34985;DHT22;21190;58.750;17.004;2022-12-13T09:36:58;-7.60;99.90
34985;DHT22;21190;58.750;17.004;2022-12-13T09:39:27;-7.60;99.90
34985;DHT22;21190;58.750;17.004;2022-12-13T09:41:55;-7.60;99.90
34985;DHT22;21190;58.750;17.004;2022-12-13T09:44:28;-7.60;99.90
34985;DHT22;21190;58.750;17.004;2022-12-13T09:47:21;-7.60;99.90
34985;DHT22;21190;58.750;17.004;2022-12-13T09:49:50;-7.60;99.90
34985;DHT22;21190;58.750;17.004;2022-12-13T09:52:20;-7.70;99.90
34985;DHT22;21190;58.750;17.004;2022-12-13T09:54:49;-7.60;99.90
34985;DHT22;21190;58.750;17.004;2022-12-13T09:57:18;-7.60;99.90
34985;DHT22;21190;58.750;17.004;2022-12-13T10:00:11;-7.70;99.90
34985;DHT22;21190;58.750;17.004;2022-12-13T10:02:43;-7.70;99.90
34985;DHT22;21190;58.750;17.004;2022-12-13T10:05:15;-7.70;99.90
34985;DHT22;21190;58.750;17.004;2022-12-13T10:07:49;-7.60;99.90
34985;DHT22;21190;58.750;17.004;2022-12-13T10:10:17;-7.60;99.90
34985;DHT22;21190;58.750;17.004;2022-12-13T10:12:45;-7.60;99.90
34985;DHT22;21190;58.750;17.004;2022-12-13T10:15:14;-7.50;99.90
34985;DHT22;21190;58.750;17.004;2022-12-13T10:17:48;-7.50;99.90
34985;DHT22;21190;58.750;17.004;2022-12-13T10:20:21;-7.60;99.90
34985;DHT22;21190;58.750;17.004;2022-12-13T10:22:49;-7.60;99.90
34985;DHT22;21190;58.750;17.004;2022-12-13T10:25:46;-7.60;99.90
34985;DHT22;21190;58.750;17.004;2022-12-13T10:28:17;-7.60;99.90
34985;DHT22;21190;58.750;17.004;2022-12-13T10:30:45;-7.60;99.90
34985;DHT22;21190;58.750;17.004;2022-12-13T10:33:23;-7.70;99.90
34985;DHT22;21190;58.750;17.004;2022-12-13T10:36:04;-7.60;99.90
34985;DHT22;21190;58.750;17.004;2022-12-13T10:38:38;-7.60;99.90
34985;DHT22;21190;58.750;17.004;2022-12-13T10:41:26;-7.60;99.90
34985;DHT22;21190;58.750;17.004;2022-12-13T10:44:13;-7.70;99.90
34985;DHT22;21190;58.750;17.004;2022-12-13T10:46:47;-7.60;99.90
34985;DHT22;21190;58.750;17.004;2022-12-13T10:51:44;-7.60;99.90
34985;DHT22;21190;58.750;17.004;2022-12-13T10:57:14;-7.70;99.90
34985;DHT22;21190;58.750;17.004;2022-12-13T10:59:42;-7.70;99.90
34985;DHT22;21190;58.750;17.004;2022-12-13T11:04:55;-7.70;99.90
34985;DHT22;21190;58.750;17.004;2022-12-13T11:07:32;-7.60;99.90
34985;DHT22;21190;58.750;17.004;2022-12-13T11:12:58;-7.70;99.90
34985;DHT22;21190;58.750;17.004;2022-12-13T11:15:26;-7.70;99.90
34985;DHT22;21190;58.750;17.004;2022-12-13T11:17:58;-7.60;99.90
34985;DHT22;21190;58.750;17.004;2022-12-13T11:20:26;-7.60;99.90
34985;DHT22;21190;58.750;17.004;2022-12-13T11:25:29;-7.60;99.90
34985;DHT22;21190;58.750;17.004;2022-12-13T11:28:06;-7.60;99.90
34985;DHT22;21190;58.750;17.004;2022-12-13T11:33:36;-7.60;99.90
34985;DHT22;21190;58.750;17.004;2022-12-13T11:41:16;-7.50;99.90
34985;DHT22;21190;58.750;17.004;2022-12-13T11:44:03;-7.50;99.90
34985;DHT22;21190;58.750;17.004;2022-12-13T11:46:36;-7.50;99.90
34985;DHT22;21190;58.750;17.004;2022-12-13T11:49:17;-7.50;99.90
34985;DHT22;21190;58.750;17.004;2022-12-13T11:51:47;-7.50;99.90
34985;DHT22;21190;58.750;17.004;2022-12-13T11:54:19;-7.50;99.90
34985;DHT22;21190;58.750;17.004;2022-12-13T11:56:49;-7.40;99.90
34985;DHT22;21190;58.750;17.004;2022-12-13T11:59:30;-7.40;99.90
34985;DHT22;21190;58.750;17.004;2022-12-13T12:07:11;-7.40;99.90
34985;DHT22;21190;58.750;17.004;2022-12-13T12:12:32;-7.40;99.90
34985;DHT22;21190;58.750;17.004;2022-12-13T12:15:11;-7.40;99.90
34985;DHT22;21190;58.750;17.004;2022-12-13T12:17:42;-7.40;99.90
34985;DHT22;21190;58.750;17.004;2022-12-13T12:20:12;-7.40;99.90
34985;DHT22;21190;58.750;17.004;2022-12-13T12:28:25;-7.40;99.90
34985;DHT22;21190;58.750;17.004;2022-12-13T12:31:38;-7.40;99.90
34985;DHT22;21190;58.750;17.004;2022-12-13T12:33:48;-7.40;99.90
34985;DHT22;21190;58.750;17.004;2022-12-13T12:55:35;-7.40;99.90
34985;DHT22;21190;58.750;17.004;2022-12-13T12:58:24;-7.40;99.90
34985;DHT22;21190;58.750;17.004;2022-12-13T13:00:59;-7.50;99.90
34985;DHT22;21190;58.750;17.004;2022-12-13T13:03:28;-7.50;99.90
34985;DHT22;21190;58.750;17.004;2022-12-13T13:08:41;-7.50;99.90
34985;DHT22;21190;58.750;17.004;2022-12-13T13:11:14;-7.60;99.90
34985;DHT22;21190;58.750;17.004;2022-12-13T13:24:16;-7.70;99.90
34985;DHT22;21190;58.750;17.004;2022-12-13T13:26:45;-7.80;99.90
34985;DHT22;21190;58.750;17.004;2022-12-13T13:34:35;-7.80;99.90
34985;DHT22;21190;58.750;17.004;2022-12-13T13:37:03;-7.90;99.90
34985;DHT22;21190;58.750;17.004;2022-12-13T13:47:15;-8.10;99.90
34985;DHT22;21190;58.750;17.004;2022-12-13T13:52:37;-8.20;99.90
34985;DHT22;21190;58.750;17.004;2022-12-13T14:06:02;-8.50;99.90
34985;DHT22;21190;58.750;17.004;2022-12-13T14:22:06;-8.70;99.90
34985;DHT22;21190;58.750;17.004;2022-12-13T14:29:38;-8.90;99.90
34985;DHT22;21190;58.750;17.004;2022-12-13T14:32:24;-8.90;99.90
34985;DHT22;21190;58.750;17.004;2022-12-13T14:34:54;-8.90;99.90
34985;DHT22;21190;58.750;17.004;2022-12-13T14:37:24;-9.10;99.90
34985;DHT22;21190;58.750;17.004;2022-12-13T14:39:53;-9.10;99.90
34985;DHT22;21190;58.750;17.004;2022-12-13T14:45:33;-9.10;99.90
34985;DHT22;21190;58.750;17.004;2022-12-13T14:48:10;-9.20;99.90
34985;DHT22;21190;58.750;17.004;2022-12-13T14:50:38;-9.20;99.90
34985;DHT22;21190;58.750;17.004;2022-12-13T14:53:06;-9.20;99.90
34985;DHT22;21190;58.750;17.004;2022-12-13T14:55:34;-9.20;99.90
34985;DHT22;21190;58.750;17.004;2022-12-13T14:58:03;-9.20;99.90
34985;DHT22;21190;58.750;17.004;2022-12-13T15:00:32;-9.20;99.90
34985;DHT22;21190;58.750;17.004;2022-12-13T15:03:00;-9.20;99.90
34985;DHT22;21190;58.750;17.004;2022-12-13T15:05:28;-9.20;99.90
34985;DHT22;21190;58.750;17.004;2022-12-13T15:07:55;-9.20;99.90
34985;DHT22;21190;58.750;17.004;2022-12-13T15:10:25;-9.10;99.90
34985;DHT22;21190;58.750;17.004;2022-12-13T15:12:53;-9.20;99.90
34985;DHT22;21190;58.750;17.004;2022-12-13T15:15:25;-9.20;99.90
34985;DHT22;21190;58.750;17.004;2022-12-13T15:20:58;-9.20;99.90
34985;DHT22;21190;58.750;17.004;2022-12-13T15:23:26;-9.20;99.90
34985;DHT22;21190;58.750;17.004;2022-12-13T15:25:57;-9.20;99.90
34985;DHT22;21190;58.750;17.004;2022-12-13T15:28:27;-9.30;99.90
34985;DHT22;21190;58.750;17.004;2022-12-13T15:30:55;-9.20;99.90
34985;DHT22;21190;58.750;17.004;2022-12-13T15:33:24;-9.30;99.90
34985;DHT22;21190;58.750;17.004;2022-12-13T15:36:02;-9.40;99.90
34985;DHT22;21190;58.750;17.004;2022-12-13T15:38:29;-9.40;99.90
34985;DHT22;21190;58.750;17.004;2022-12-13T15:40:56;-9.40;99.90
34985;DHT22;21190;58.750;17.004;2022-12-13T15:43:30;-9.50;99.90
34985;DHT22;21190;58.750;17.004;2022-12-13T15:45:58;-9.60;99.90
34985;DHT22;21190;58.750;17.004;2022-12-13T15:48:27;-9.40;99.90
34985;DHT22;21190;58.750;17.004;2022-12-13T15:53:37;-9.60;99.90
34985;DHT22;21190;58.750;17.004;2022-12-13T15:58:52;-9.60;99.90
34985;DHT22;21190;58.750;17.004;2022-12-13T16:01:31;-9.70;99.90
34985;DHT22;21190;58.750;17.004;2022-12-13T16:03:59;-9.70;99.90
34985;DHT22;21190;58.750;17.004;2022-12-13T16:06:30;-9.70;99.90
34985;DHT22;21190;58.750;17.004;2022-12-13T16:09:02;-9.70;99.90
34985;DHT22;21190;58.750;17.004;2022-12-13T16:11:33;-9.70;99.90
34985;DHT22;21190;58.750;17.004;2022-12-13T16:16:52;-9.70;99.90
34985;DHT22;21190;58.750;17.004;2022-12-13T16:19:19;-9.70;99.90
34985;DHT22;21190;58.750;17.004;2022-12-13T16:21:46;-9.80;99.90
34985;DHT22;21190;58.750;17.004;2022-12-13T16:24:13;-9.80;99.90
34985;DHT22;21190;58.750;17.004;2022-12-13T16:26:46;-9.90;99.90
34985;DHT22;21190;58.750;17.004;2022-12-13T16:29:14;-9.80;99.90
34985;DHT22;21190;58.750;17.004;2022-12-13T16:31:42;-9.70;99.90
34985;DHT22;21190;58.750;17.004;2022-12-13T16:34:12;-9.80;99.90
34985;DHT22;21190;58.750;17.004;2022-12-13T16:36:39;-9.80;99.90
34985;DHT22;21190;58.750;17.004;2022-12-13T16:39:08;-9.90;99.90
34985;DHT22;21190;58.750;17.004;2022-12-13T16:41:39;-9.90;99.90
34985;DHT22;21190;58.750;17.004;2022-12-13T16:44:17;-9.90;99.90
34985;DHT22;21190;58.750;17.004;2022-12-13T16:46:45;-9.90;99.90
34985;DHT22;21190;58.750;17.004;2022-12-13T16:49:31;-10.00;99.90
34985;DHT22;21190;58.750;17.004;2022-12-13T16:51:59;-10.10;99.90
34985;DHT22;21190;58.750;17.004;2022-12-13T16:54:25;-10.10;99.90
34985;DHT22;21190;58.750;17.004;2022-12-13T16:56:52;-10.20;99.90
34985;DHT22;21190;58.750;17.004;2022-12-13T16:59:21;-10.30;99.90
34985;DHT22;21190;58.750;17.004;2022-12-13T17:01:48;-10.40;99.90
34985;DHT22;21190;58.750;17.004;2022-12-13T17:04:17;-10.30;99.90
34985;DHT22;21190;58.750;17.004;2022-12-13T17:06:47;-10.40;99.90
34985;DHT22;21190;58.750;17.004;2022-12-13T17:09:14;-10.40;99.90
34985;DHT22;21190;58.750;17.004;2022-12-13T17:11:41;-10.30;99.90
34985;DHT22;21190;58.750;17.004;2022-12-13T17:14:08;-10.30;99.90
34985;DHT22;21190;58.750;17.004;2022-12-13T17:16:36;-10.30;99.90
34985;DHT22;21190;58.750;17.004;2022-12-13T17:19:03;-10.40;99.90
34985;DHT22;21190;58.750;17.004;2022-12-13T17:21:29;-10.40;99.90
34985;DHT22;21190;58.750;17.004;2022-12-13T17:23:57;-10.40;99.90
34985;DHT22;21190;58.750;17.004;2022-12-13T17:26:25;-10.40;99.90
34985;DHT22;21190;58.750;17.004;2022-12-13T17:28:52;-10.50;99.90
34985;DHT22;21190;58.750;17.004;2022-12-13T17:31:19;-10.50;99.90
34985;DHT22;21190;58.750;17.004;2022-12-13T17:33:46;-10.50;99.90
34985;DHT22;21190;58.750;17.004;2022-12-13T17:36:13;-10.50;99.90
34985;DHT22;21190;58.750;17.004;2022-12-13T17:38:44;-10.50;99.90
34985;DHT22;21190;58.750;17.004;2022-12-13T17:41:12;-10.60;99.90
34985;DHT22;21190;58.750;17.004;2022-12-13T17:43:39;-10.60;99.90
34985;DHT22;21190;58.750;17.004;2022-12-13T17:46:12;-10.50;99.90
34985;DHT22;21190;58.750;17.004;2022-12-13T17:48:40;-10.70;99.90
34985;DHT22;21190;58.750;17.004;2022-12-13T17:51:08;-10.60;99.90
34985;DHT22;21190;58.750;17.004;2022-12-13T17:53:35;-10.70;99.90
34985;DHT22;21190;58.750;17.004;2022-12-13T17:56:04;-10.70;99.90
34985;DHT22;21190;58.750;17.004;2022-12-13T17:58:33;-10.80;99.90
34985;DHT22;21190;58.750;17.004;2022-12-13T18:01:17;-10.70;99.90
34985;DHT22;21190;58.750;17.004;2022-12-13T18:03:44;-10.80;99.90
34985;DHT22;21190;58.750;17.004;2022-12-13T18:06:13;-10.90;99.90
34985;DHT22;21190;58.750;17.004;2022-12-13T18:08:40;-10.80;99.90
34985;DHT22;21190;58.750;17.004;2022-12-13T18:11:10;-10.70;99.90